createdAt,value
2023-03-23T00:00:02.517Z,11.72
2023-03-23T00:01:01.714Z,11.72
2023-03-23T00:02:02.874Z,11.74
2023-03-23T00:03:02.011Z,11.74
2023-03-23T00:04:02.273Z,11.76
2023-03-23T00:05:01.796Z,11.78
2023-03-23T00:06:02.273Z,11.79
2023-03-23T00:07:02.506Z,11.84
2023-03-23T00:09:02.688Z,11.89
2023-03-23T00:10:03.083Z,11.93
2023-03-23T00:11:03.703Z,11.96
2023-03-23T00:12:02.230Z,11.96
2023-03-23T00:13:04.400Z,11.93
2023-03-23T00:14:01.719Z,11.93
2023-03-23T00:15:02.297Z,11.96
2023-03-23T00:16:04.286Z,11.96
2023-03-23T00:17:02.615Z,11.97
2023-03-23T00:18:02.299Z,11.97
2023-03-23T00:19:01.829Z,11.98
2023-03-23T00:20:02.288Z,11.97
2023-03-23T00:21:01.898Z,11.94
2023-03-23T00:22:03.294Z,11.93
2023-03-23T00:23:02.748Z,11.91
2023-03-23T00:24:01.503Z,11.89
2023-03-23T00:25:02.010Z,11.86
2023-03-23T00:26:01.489Z,11.81
2023-03-23T00:27:02.908Z,11.75
2023-03-23T00:28:01.645Z,11.74
2023-03-23T00:29:02.232Z,11.73
2023-03-23T00:30:01.698Z,11.74
2023-03-23T00:31:03.179Z,11.71
2023-03-23T00:32:02.673Z,11.72
2023-03-23T00:33:01.416Z,11.73
2023-03-23T00:34:03.594Z,11.71
2023-03-23T00:35:01.427Z,11.7
2023-03-23T00:36:01.926Z,11.7
2023-03-23T00:37:03.751Z,11.7
2023-03-23T00:38:02.258Z,11.7
2023-03-23T00:39:01.571Z,11.7
2023-03-23T00:40:02.104Z,11.7
2023-03-23T00:41:01.572Z,11.7
2023-03-23T00:42:02.847Z,11.69
2023-03-23T00:43:01.660Z,11.7
2023-03-23T00:44:02.215Z,11.7
2023-03-23T00:45:01.688Z,11.71
2023-03-23T00:46:02.246Z,11.75
2023-03-23T00:47:02.440Z,11.81
2023-03-23T00:48:02.251Z,11.84
2023-03-23T00:49:01.837Z,11.86
2023-03-23T00:50:02.316Z,11.88
2023-03-23T00:51:03.517Z,11.89
2023-03-23T00:53:02.478Z,11.99
2023-03-23T00:54:01.486Z,11.99
2023-03-23T00:55:01.998Z,11.99
2023-03-23T00:56:01.488Z,11.99
2023-03-23T00:57:04.475Z,12
2023-03-23T00:58:02.024Z,12
2023-03-23T00:59:01.528Z,12.05
2023-03-23T01:00:05.632Z,12.08
2023-03-23T01:01:01.494Z,12.1
2023-03-23T01:02:04.842Z,12.08
2023-03-23T01:03:03.725Z,12.08
2023-03-23T01:04:03.055Z,12.1
2023-03-23T01:05:03.005Z,12.1
2023-03-23T01:06:01.653Z,12.1
2023-03-23T01:07:04.698Z,12.12
2023-03-23T01:08:02.191Z,12.14
2023-03-23T01:09:03.437Z,12.15
2023-03-23T01:10:03.787Z,12.14
2023-03-23T01:11:01.688Z,12.12
2023-03-23T01:12:03.139Z,12.11
2023-03-23T01:13:01.727Z,12.12
2023-03-23T01:14:02.187Z,12.11
2023-03-23T01:15:01.662Z,12.13
2023-03-23T01:16:03.088Z,12.12
2023-03-23T01:17:04.135Z,12.12
2023-03-23T01:18:03.442Z,12.16
2023-03-23T01:19:02.205Z,12.19
2023-03-23T01:20:01.658Z,12.19
2023-03-23T01:21:02.100Z,12.2
2023-03-23T01:22:03.925Z,12.17
2023-03-23T01:23:01.398Z,12.18
2023-03-23T01:24:01.875Z,12.19
2023-03-23T01:25:03.012Z,12.26
2023-03-23T01:26:03.458Z,12.26
2023-03-23T01:27:02.189Z,12.22
2023-03-23T01:28:02.213Z,12.3
2023-03-23T01:29:01.489Z,12.37
2023-03-23T01:30:01.957Z,12.36
2023-03-23T01:31:01.401Z,12.37
2023-03-23T01:32:04.370Z,12.38
2023-03-23T01:33:03.533Z,12.45
2023-03-23T01:34:02.281Z,12.52
2023-03-23T01:35:01.794Z,12.55
2023-03-23T01:36:02.319Z,12.56
2023-03-23T01:37:02.657Z,12.51
2023-03-23T01:38:02.894Z,12.5
2023-03-23T01:39:01.808Z,12.51
2023-03-23T01:40:02.287Z,12.51
2023-03-23T01:41:01.777Z,12.5
2023-03-23T01:42:03.915Z,12.48
2023-03-23T01:43:02.999Z,12.45
2023-03-23T01:44:01.800Z,12.43
2023-03-23T01:45:02.310Z,12.38
2023-03-23T01:46:01.810Z,12.42
2023-03-23T01:47:02.066Z,12.4
2023-03-23T01:48:01.981Z,12.37
2023-03-23T01:49:03.197Z,12.42
2023-03-23T01:50:02.011Z,12.47
2023-03-23T01:51:01.483Z,12.58
2023-03-23T01:52:04.689Z,12.57
2023-03-23T01:53:01.961Z,12.59
2023-03-23T01:54:01.429Z,12.63
2023-03-23T01:55:01.922Z,12.67
2023-03-23T01:56:03.090Z,12.64
2023-03-23T01:57:02.482Z,12.6
2023-03-23T01:58:01.616Z,12.6
2023-03-23T01:59:01.963Z,12.56
2023-03-23T02:00:03.182Z,12.53
2023-03-23T02:01:01.999Z,12.55
2023-03-23T02:02:03.722Z,12.53
2023-03-23T02:03:02.124Z,12.5
2023-03-23T02:04:01.585Z,12.47
2023-03-23T02:05:02.157Z,12.47
2023-03-23T02:06:03.219Z,12.48
2023-03-23T02:07:04.414Z,12.46
2023-03-23T02:08:01.996Z,12.43
2023-03-23T02:09:01.391Z,12.41
2023-03-23T02:10:01.877Z,12.34
2023-03-23T02:11:01.400Z,12.32
2023-03-23T02:12:02.654Z,12.29
2023-03-23T02:13:01.375Z,12.22
2023-03-23T02:14:01.911Z,12.19
2023-03-23T02:15:03.534Z,12.2
2023-03-23T02:16:01.409Z,12.13
2023-03-23T02:17:04.322Z,12.07
2023-03-23T02:18:02.066Z,12.02
2023-03-23T02:19:02.168Z,11.96
2023-03-23T02:20:03.319Z,11.9
2023-03-23T02:21:02.201Z,11.88
2023-03-23T02:22:02.447Z,11.88
2023-03-23T02:23:02.092Z,11.9
2023-03-23T02:24:03.374Z,11.92
2023-03-23T02:25:02.091Z,11.92
2023-03-23T02:26:03.236Z,11.98
2023-03-23T02:27:02.603Z,11.99
2023-03-23T02:28:01.745Z,12
2023-03-23T02:29:03.766Z,12.04
2023-03-23T02:30:01.576Z,12.02
2023-03-23T02:31:02.092Z,12.04
2023-03-23T02:32:02.346Z,12.06
2023-03-23T02:33:03.807Z,12.04
2023-03-23T02:34:01.601Z,11.99
2023-03-23T02:35:03.807Z,12.07
2023-03-23T02:36:01.673Z,12.08
2023-03-23T02:37:02.741Z,12.1
2023-03-23T02:38:02.601Z,12.11
2023-03-23T02:39:01.311Z,12.08
2023-03-23T02:40:01.858Z,12.05
2023-03-23T02:41:02.289Z,12.04
2023-03-23T02:42:02.636Z,12.05
2023-03-23T02:43:01.387Z,12.04
2023-03-23T02:44:03.592Z,12.05
2023-03-23T02:45:03.072Z,12.06
2023-03-23T02:46:01.889Z,12.05
2023-03-23T02:47:02.433Z,12.04
2023-03-23T02:48:02.808Z,12.08
2023-03-23T02:49:01.576Z,12.07
2023-03-23T02:50:01.998Z,12.11
2023-03-23T02:51:03.157Z,12.06
2023-03-23T02:52:03.281Z,12.08
2023-03-23T02:53:01.952Z,12.05
2023-03-23T02:54:03.817Z,12.01
2023-03-23T02:55:01.643Z,12.02
2023-03-23T02:56:03.788Z,12.01
2023-03-23T02:57:02.188Z,11.97
2023-03-23T02:58:04.915Z,11.93
2023-03-23T02:59:02.344Z,11.91
2023-03-23T03:00:01.772Z,11.91
2023-03-23T03:01:03.889Z,11.9
2023-03-23T03:02:03.751Z,11.88
2023-03-23T03:03:02.684Z,11.84
2023-03-23T03:04:02.615Z,11.87
2023-03-23T03:05:01.634Z,11.9
2023-03-23T03:06:01.873Z,11.91
2023-03-23T03:07:02.119Z,11.93
2023-03-23T03:08:02.660Z,11.97
2023-03-23T03:09:01.504Z,11.94
2023-03-23T03:10:03.660Z,11.91
2023-03-23T03:11:03.357Z,11.89
2023-03-23T03:12:02.831Z,11.84
2023-03-23T03:13:03.431Z,11.78
2023-03-23T03:14:03.894Z,11.76
2023-03-23T03:15:03.498Z,11.72
2023-03-23T03:16:03.965Z,11.7
2023-03-23T03:17:04.093Z,11.7
2023-03-23T03:18:01.763Z,11.67
2023-03-23T03:19:02.075Z,11.6
2023-03-23T03:20:01.572Z,11.56
2023-03-23T03:21:03.808Z,11.52
2023-03-23T03:22:02.712Z,11.51
2023-03-23T03:23:03.164Z,11.48
2023-03-23T03:24:01.911Z,11.46
2023-03-23T03:25:01.421Z,11.44
2023-03-23T03:26:01.877Z,11.42
2023-03-23T03:27:02.019Z,11.39
2023-03-23T03:28:03.886Z,11.36
2023-03-23T03:29:01.581Z,11.32
2023-03-23T03:30:02.114Z,11.3
2023-03-23T03:31:01.493Z,11.28
2023-03-23T03:32:02.861Z,11.26
2023-03-23T03:33:01.654Z,11.25
2023-03-23T03:34:02.132Z,11.26
2023-03-23T03:35:01.570Z,11.27
2023-03-23T03:36:02.070Z,11.28
2023-03-23T03:37:04.140Z,11.27
2023-03-23T03:38:02.020Z,11.28
2023-03-23T03:39:02.061Z,11.27
2023-03-23T03:40:01.570Z,11.27
2023-03-23T03:41:02.068Z,11.27
2023-03-23T03:42:02.709Z,11.27
2023-03-23T03:43:02.407Z,11.26
2023-03-23T03:44:01.735Z,11.26
2023-03-23T03:45:02.221Z,11.28
2023-03-23T03:46:01.677Z,11.29
2023-03-23T03:47:02.841Z,11.33
2023-03-23T03:48:03.787Z,11.39
2023-03-23T03:49:02.282Z,11.41
2023-03-23T03:50:01.722Z,11.42
2023-03-23T03:51:02.281Z,11.4
2023-03-23T03:52:02.741Z,11.4
2023-03-23T03:53:02.050Z,11.41
2023-03-23T03:54:02.996Z,11.46
2023-03-23T03:55:01.820Z,11.54
2023-03-23T03:56:02.273Z,11.56
2023-03-23T03:57:02.437Z,11.57
2023-03-23T03:58:01.669Z,11.59
2023-03-23T03:59:21.438Z,11.57
2023-03-23T04:00:03.150Z,11.54
2023-03-23T04:01:01.968Z,11.54
2023-03-23T04:02:02.446Z,11.56
2023-03-23T04:03:04.269Z,11.55
2023-03-23T04:04:01.767Z,11.53
2023-03-23T04:05:02.218Z,11.56
2023-03-23T04:06:01.726Z,11.56
2023-03-23T04:07:04.496Z,11.58
2023-03-23T04:08:09.624Z,11.62
2023-03-23T04:09:07.713Z,11.64
2023-03-23T04:10:03.806Z,11.66
2023-03-23T04:11:01.581Z,11.66
2023-03-23T04:12:02.972Z,11.67
2023-03-23T04:13:03.655Z,11.66
2023-03-23T04:14:02.134Z,11.62
2023-03-23T04:15:06.304Z,11.61
2023-03-23T04:16:07.178Z,11.61
2023-03-23T04:17:02.464Z,11.63
2023-03-23T04:18:02.548Z,11.67
2023-03-23T04:19:03.419Z,11.7
2023-03-23T04:20:02.203Z,11.77
2023-03-23T04:21:01.736Z,11.83
2023-03-23T04:22:03.126Z,11.85
2023-03-23T04:23:03.873Z,11.97
2023-03-23T04:24:01.482Z,11.97
2023-03-23T04:25:02.115Z,11.92
2023-03-23T04:26:01.474Z,11.88
2023-03-23T04:27:02.930Z,11.84
2023-03-23T04:28:01.966Z,11.78
2023-03-23T04:29:03.972Z,11.79
2023-03-23T04:30:01.841Z,11.81
2023-03-23T04:31:02.322Z,11.78
2023-03-23T04:32:02.657Z,11.76
2023-03-23T04:33:03.494Z,11.76
2023-03-23T04:34:02.049Z,11.78
2023-03-23T04:35:12.877Z,11.83
2023-03-23T04:36:02.249Z,11.85
2023-03-23T04:37:02.402Z,11.84
2023-03-23T04:38:01.824Z,11.85
2023-03-23T04:39:01.945Z,11.82
2023-03-23T04:40:01.325Z,11.83
2023-03-23T04:41:01.894Z,11.87
2023-03-23T04:42:02.180Z,11.85
2023-03-23T04:43:04.025Z,11.85
2023-03-23T04:44:01.639Z,11.82
2023-03-23T04:45:02.122Z,11.82
2023-03-23T04:46:01.650Z,11.91
2023-03-23T04:47:01.818Z,12
2023-03-23T04:48:01.904Z,12.05
2023-03-23T04:49:01.378Z,12.05
2023-03-23T04:50:02.006Z,12.07
2023-03-23T04:51:01.472Z,12.12
2023-03-23T04:52:03.180Z,12.15
2023-03-23T04:53:02.250Z,12.16
2023-03-23T04:54:02.230Z,12.2
2023-03-23T04:55:01.648Z,12.19
2023-03-23T04:56:03.790Z,12.21
2023-03-23T04:57:02.598Z,12.25
2023-03-23T04:58:01.659Z,12.34
2023-03-23T04:59:02.004Z,12.45
2023-03-23T05:00:01.399Z,12.44
2023-03-23T05:01:01.958Z,12.43
2023-03-23T07:52:10.383Z,13.2
2023-03-23T07:53:02.550Z,13.17
2023-03-23T07:54:01.537Z,13.09
2023-03-23T07:55:03.726Z,13.01
2023-03-23T07:56:01.645Z,12.97
2023-03-23T07:57:03.813Z,12.93
2023-03-23T07:58:01.465Z,12.89
2023-03-23T07:59:03.707Z,12.86
2023-03-23T08:00:01.462Z,12.78
2023-03-23T08:01:01.989Z,12.75
2023-03-23T08:02:02.270Z,12.71
2023-03-23T08:03:02.585Z,12.71
2023-03-23T08:04:03.574Z,12.66
2023-03-23T08:06:01.917Z,12.59
2023-03-23T08:07:02.257Z,12.57
2023-03-23T08:08:02.199Z,12.51
2023-03-23T08:09:01.598Z,12.5
2023-03-23T08:10:02.004Z,12.51
2023-03-23T08:11:01.522Z,12.53
2023-03-23T08:12:02.939Z,12.59
2023-03-23T08:13:01.966Z,12.6
2023-03-23T08:15:03.613Z,12.6
2023-03-23T08:16:01.409Z,12.6
2023-03-23T08:17:03.340Z,12.6
2023-03-23T08:18:03.736Z,12.6
2023-03-23T08:19:08.296Z,12.61
2023-03-23T08:20:01.959Z,12.65
2023-03-23T08:21:01.517Z,12.66
2023-03-23T08:22:02.178Z,12.67
2023-03-23T08:23:02.351Z,12.67
2023-03-23T08:24:01.584Z,12.66
2023-03-23T08:25:02.068Z,12.65
2023-03-23T08:26:01.598Z,12.65
2023-03-23T08:27:02.970Z,12.67
2023-03-23T08:28:03.535Z,12.7
2023-03-23T08:29:02.533Z,12.69
2023-03-23T08:30:01.913Z,12.7
2023-03-23T08:31:02.287Z,12.69
2023-03-23T08:32:02.852Z,12.67
2023-03-23T08:33:04.790Z,12.72
2023-03-23T08:34:03.844Z,12.69
2023-03-23T08:35:01.602Z,12.69
2023-03-23T08:36:02.222Z,12.69
2023-03-23T08:37:04.496Z,12.64
2023-03-23T08:38:01.860Z,12.6
2023-03-23T08:39:02.426Z,12.62
2023-03-23T08:40:02.010Z,12.65
2023-03-23T08:41:01.382Z,12.64
2023-03-23T08:42:02.949Z,12.7
2023-03-23T08:43:01.693Z,12.74
2023-03-23T08:44:03.890Z,12.77
2023-03-23T08:45:03.337Z,12.81
2023-03-23T08:46:02.219Z,12.84
2023-03-23T08:47:02.840Z,12.9
2023-03-23T08:48:01.651Z,12.93
2023-03-23T08:49:02.106Z,12.97
2023-03-23T08:50:01.688Z,13.02
2023-03-23T08:51:02.141Z,13.09
2023-03-23T08:52:02.499Z,13.15
2023-03-23T08:53:02.833Z,13.18
2023-03-23T08:54:01.812Z,13.18
2023-03-23T08:55:02.308Z,13.18
2023-03-23T08:56:01.803Z,13.19
2023-03-23T08:58:02.586Z,13.25
2023-03-23T08:59:01.346Z,13.29
2023-03-23T09:00:01.890Z,13.29
2023-03-23T09:01:01.320Z,13.31
2023-03-23T09:02:03.864Z,13.33
2023-03-23T09:03:02.423Z,13.33
2023-03-23T09:04:04.255Z,13.33
2023-03-23T09:05:01.501Z,13.33
2023-03-23T09:06:01.977Z,13.33
2023-03-23T09:07:02.287Z,13.33
2023-03-23T09:08:04.736Z,13.32
2023-03-23T09:09:01.725Z,13.33
2023-03-23T09:10:03.914Z,13.35
2023-03-23T09:11:01.712Z,13.37
2023-03-23T09:12:04.018Z,13.38
2023-03-23T09:13:01.431Z,13.41
2023-03-23T09:14:03.567Z,13.45
2023-03-23T09:15:01.403Z,13.49
2023-03-23T09:16:02.148Z,13.51
2023-03-23T09:17:03.906Z,13.54
2023-03-23T09:18:02.596Z,13.59
2023-03-23T09:19:01.720Z,13.64
2023-03-23T09:20:03.965Z,13.67
2023-03-23T09:21:03.522Z,13.69
2023-03-23T09:22:02.195Z,13.71
2023-03-23T09:23:02.029Z,13.73
2023-03-23T09:24:01.653Z,13.74
2023-03-23T09:25:02.102Z,13.75
2023-03-23T09:26:01.551Z,13.75
2023-03-23T09:27:04.397Z,13.77
2023-03-23T09:28:02.233Z,13.78
2023-03-23T09:29:03.153Z,13.79
2023-03-23T09:30:02.025Z,13.8
2023-03-23T09:31:01.488Z,13.81
2023-03-23T09:32:02.699Z,13.83
2023-03-23T09:33:03.250Z,13.86
2023-03-23T09:34:02.106Z,13.88
2023-03-23T09:35:01.585Z,13.9
2023-03-23T09:36:02.065Z,13.91
2023-03-23T09:37:02.437Z,13.91
2023-03-23T09:38:01.833Z,13.92
2023-03-23T09:39:02.232Z,13.93
2023-03-23T09:40:06.663Z,13.95
2023-03-23T09:41:01.844Z,13.95
2023-03-23T09:42:02.922Z,13.96
2023-03-23T09:43:01.876Z,13.93
2023-03-23T09:44:01.342Z,13.92
2023-03-23T09:45:03.648Z,13.95
2023-03-23T09:46:01.344Z,13.98
2023-03-23T09:47:02.582Z,14
2023-03-23T09:48:01.742Z,14
2023-03-23T09:49:01.986Z,14
2023-03-23T09:50:01.498Z,14.01
2023-03-23T09:51:01.967Z,14.01
2023-03-23T09:52:03.071Z,14.03
2023-03-23T09:53:02.721Z,13.99
2023-03-23T09:54:03.218Z,13.97
2023-03-23T09:55:02.332Z,13.95
2023-03-23T09:56:02.392Z,13.91
2023-03-23T09:57:02.609Z,13.9
2023-03-23T09:58:02.433Z,13.86
2023-03-23T09:59:01.822Z,13.84
2023-03-23T10:00:02.277Z,13.82
2023-03-23T10:01:03.517Z,13.81
2023-03-23T10:02:02.386Z,13.8
2023-03-23T10:03:03.755Z,13.79
2023-03-23T10:04:01.437Z,13.8
2023-03-23T10:05:03.650Z,13.82
2023-03-23T10:06:01.423Z,13.84
2023-03-23T10:07:02.900Z,13.85
2023-03-23T10:08:01.828Z,13.89
2023-03-23T10:09:03.798Z,13.9
2023-03-23T10:10:03.335Z,13.91
2023-03-23T10:11:03.874Z,13.92
2023-03-23T10:12:02.622Z,13.93
2023-03-23T10:13:01.386Z,13.93
2023-03-23T10:14:01.964Z,13.93
2023-03-23T10:15:03.084Z,13.93
2023-03-23T10:16:01.955Z,13.92
2023-03-23T10:17:03.946Z,13.91
2023-03-23T10:18:01.790Z,13.91
2023-03-23T10:19:01.956Z,13.92
2023-03-23T10:20:03.160Z,13.92
2023-03-23T10:21:02.036Z,13.93
2023-03-23T10:22:04.151Z,13.92
2023-03-23T10:23:03.237Z,13.91
2023-03-23T10:24:01.958Z,13.91
2023-03-23T10:25:01.497Z,13.9
2023-03-23T10:26:03.632Z,13.91
2023-03-23T10:27:02.386Z,13.93
2023-03-23T10:28:02.235Z,13.92
2023-03-23T10:29:01.732Z,13.93
2023-03-23T10:30:02.220Z,13.93
2023-03-23T10:31:01.732Z,13.95
2023-03-23T10:33:02.682Z,13.9
2023-03-23T10:34:01.593Z,13.89
2023-03-23T10:35:03.745Z,13.86
2023-03-23T10:36:01.600Z,13.85
2023-03-23T10:37:02.932Z,13.86
2023-03-23T10:38:02.388Z,13.85
2023-03-23T10:39:02.347Z,13.84
2023-03-23T10:40:01.814Z,13.83
2023-03-23T10:42:02.858Z,13.8
2023-03-23T10:43:01.679Z,13.81
2023-03-23T10:44:02.243Z,13.82
2023-03-23T10:45:01.894Z,13.83
2023-03-23T10:46:01.548Z,13.83
2023-03-23T10:47:02.834Z,13.82
2023-03-23T10:48:03.846Z,13.79
2023-03-23T10:49:01.398Z,13.77
2023-03-23T10:50:01.952Z,13.74
2023-03-23T10:51:02.118Z,13.69
2023-03-23T10:52:02.480Z,13.65
2023-03-23T10:53:02.230Z,13.63
2023-03-23T10:54:03.349Z,13.58
2023-03-23T10:55:02.188Z,13.55
2023-03-23T10:56:01.642Z,13.51
2023-03-23T10:57:04.006Z,13.47
2023-03-23T10:58:01.843Z,13.43
2023-03-23T10:59:03.917Z,13.4
2023-03-23T11:00:01.740Z,13.38
2023-03-23T11:01:02.300Z,13.37
2023-03-23T12:54:36.398Z,14.98
2023-03-23T12:55:02.327Z,14.96
2023-03-23T12:56:02.043Z,14.94
2023-03-23T12:57:02.496Z,14.89
2023-03-23T12:58:01.533Z,14.85
2023-03-23T12:59:00.975Z,14.79
2023-03-23T13:00:01.901Z,14.75
2023-03-23T13:01:01.410Z,14.71
2023-03-23T13:02:04.674Z,14.68
2023-03-23T13:03:03.542Z,14.66
2023-03-23T13:04:02.484Z,14.62
2023-03-23T13:05:03.939Z,14.56
2023-03-23T13:06:01.665Z,14.51
2023-03-23T13:07:02.225Z,14.47
2023-03-23T13:08:02.625Z,14.44
2023-03-23T13:09:01.490Z,14.44
2023-03-23T13:10:02.056Z,14.43
2023-03-23T13:11:01.575Z,14.41
2023-03-23T13:12:03.893Z,14.35
2023-03-23T13:13:03.569Z,14.29
2023-03-23T13:14:01.395Z,14.25
2023-03-23T13:15:03.564Z,14.24
2023-03-23T13:16:01.390Z,14.25
2023-03-23T13:17:02.784Z,14.26
2023-03-23T13:18:03.363Z,14.27
2023-03-23T13:19:03.812Z,14.3
2023-03-23T13:20:01.559Z,14.33
2023-03-23T13:21:02.063Z,14.36
2023-03-23T13:22:02.384Z,14.39
2023-03-23T13:23:02.479Z,14.43
2023-03-23T13:24:01.641Z,14.44
2023-03-23T13:25:02.252Z,14.47
2023-03-23T13:26:01.723Z,14.5
2023-03-23T13:27:02.281Z,14.52
2023-03-23T13:28:02.214Z,14.53
2023-03-23T13:29:01.673Z,14.53
2023-03-23T13:30:02.232Z,14.52
2023-03-23T13:31:01.754Z,14.53
2023-03-23T13:32:04.757Z,14.51
2023-03-23T13:33:02.126Z,14.5
2023-03-23T13:34:01.679Z,14.49
2023-03-23T13:35:02.250Z,14.51
2023-03-23T13:36:02.778Z,14.55
2023-03-23T13:37:02.445Z,14.65
2023-03-23T13:38:02.569Z,14.79
2023-03-23T13:39:01.819Z,14.97
2023-03-23T13:40:02.144Z,15.15
2023-03-23T13:41:01.830Z,15.24
2023-03-23T13:42:04.606Z,15.23
2023-03-23T13:43:02.123Z,15.19
2023-03-23T13:44:01.688Z,15.21
2023-03-23T13:45:02.215Z,15.24
2023-03-23T13:46:01.677Z,15.21
2023-03-23T13:47:04.810Z,15.17
2023-03-23T13:48:01.893Z,15.17
2023-03-23T13:49:05.299Z,15.16
2023-03-23T13:50:01.940Z,15.16
2023-03-23T13:51:01.724Z,15.16
2023-03-23T13:52:02.215Z,15.13
2023-03-23T13:53:02.186Z,15.08
2023-03-23T13:54:03.290Z,15.02
2023-03-23T13:55:02.103Z,14.97
2023-03-23T13:56:05.862Z,14.94
2023-03-23T13:57:04.651Z,14.89
2023-03-23T13:58:02.050Z,14.86
2023-03-23T13:59:01.589Z,14.84
2023-03-23T14:00:02.068Z,14.79
2023-03-23T14:01:01.567Z,14.75
2023-03-23T14:02:02.119Z,14.71
2023-03-23T14:03:03.813Z,14.7
2023-03-23T14:04:01.489Z,14.7
2023-03-23T14:05:01.969Z,14.7
2023-03-23T14:06:03.164Z,14.7
2023-03-23T14:07:02.847Z,14.68
2023-03-23T14:08:03.655Z,14.66
2023-03-23T14:10:02.591Z,14.6
2023-03-23T14:11:01.709Z,14.56
2023-03-23T14:13:02.664Z,14.47
2023-03-23T14:14:01.734Z,14.44
2023-03-23T14:15:02.213Z,14.43
2023-03-23T14:16:01.670Z,14.42
2023-03-23T14:18:02.895Z,14.37
2023-03-23T14:19:03.425Z,14.34
2023-03-23T14:20:02.214Z,14.33
2023-03-23T14:21:01.739Z,14.3
2023-03-23T14:22:04.573Z,14.27
2023-03-23T14:23:01.986Z,14.23
2023-03-23T14:24:03.261Z,14.2
2023-03-23T14:25:01.981Z,14.17
2023-03-23T14:26:03.158Z,14.12
2023-03-23T14:27:04.647Z,14.11
2023-03-23T14:28:02.417Z,14.1
2023-03-23T14:29:01.739Z,14.1
2023-03-23T14:30:03.897Z,14.08
2023-03-23T14:31:01.676Z,14.05
2023-03-23T14:32:03.650Z,14.06
2023-03-23T14:33:02.193Z,14.04
2023-03-23T14:34:01.585Z,14.06
2023-03-23T14:35:03.840Z,14.09
2023-03-23T14:36:03.238Z,14.1
2023-03-23T14:37:01.986Z,14.11
2023-03-23T14:38:03.741Z,14.13
2023-03-23T14:39:01.968Z,14.17
2023-03-23T14:40:03.205Z,14.17
2023-03-23T14:41:01.971Z,14.18
2023-03-23T14:42:02.292Z,14.19
2023-03-23T14:43:02.211Z,14.17
2023-03-23T14:44:01.737Z,14.18
2023-03-23T14:45:02.263Z,14.18
2023-03-23T14:46:01.793Z,14.17
2023-03-23T14:47:02.793Z,14.17
2023-03-23T14:48:04.264Z,14.15
2023-03-23T14:49:03.320Z,14.18
2023-03-23T14:50:01.907Z,14.18
2023-03-23T14:51:03.561Z,14.19
2023-03-23T14:52:02.890Z,14.19
2023-03-23T14:53:03.465Z,14.19
2023-03-23T14:54:02.188Z,14.2
2023-03-23T14:55:01.778Z,14.19
2023-03-23T14:56:02.270Z,14.19
2023-03-23T14:57:02.270Z,14.2
2023-03-23T14:58:02.778Z,14.2
2023-03-23T14:59:03.300Z,14.2
2023-03-23T15:00:03.716Z,14.2
2023-03-23T15:01:01.579Z,14.2
2023-03-23T15:02:02.677Z,14.19
2023-03-23T15:03:04.907Z,14.15
2023-03-23T15:04:04.252Z,14.14
2023-03-23T15:05:02.475Z,14.13
2023-03-23T15:06:01.459Z,14.1
2023-03-23T15:07:02.646Z,14.1
2023-03-23T15:08:01.369Z,14.09
2023-03-23T15:09:01.853Z,14.08
2023-03-23T15:10:01.300Z,14.08
2023-03-23T15:11:03.447Z,14.09
2023-03-23T15:12:02.058Z,14.1
2023-03-23T15:13:02.094Z,14.12
2023-03-23T15:14:01.395Z,14.13
2023-03-23T15:15:03.529Z,14.12
2023-03-23T15:16:01.373Z,14.12
2023-03-23T15:17:04.369Z,14.12
2023-03-23T15:18:01.889Z,14.11
2023-03-23T15:19:03.910Z,14.1
2023-03-23T15:20:01.723Z,14.1
2023-03-23T15:21:02.197Z,14.1
2023-03-23T15:22:02.431Z,14.09
2023-03-23T15:23:02.566Z,14.08
2023-03-23T15:24:03.388Z,14.07
2023-03-23T15:25:02.305Z,14.05
2023-03-23T15:26:03.407Z,14.01
2023-03-23T15:27:03.058Z,13.99
2023-03-23T15:28:01.918Z,13.97
2023-03-23T15:30:01.891Z,13.95
2023-03-23T15:31:01.301Z,13.93
2023-03-23T15:32:04.607Z,13.86
2023-03-23T15:33:02.454Z,13.78
2023-03-23T15:34:03.243Z,13.66
2023-03-23T15:35:12.394Z,13.56
2023-03-23T15:36:03.136Z,13.49
2023-03-23T15:37:04.482Z,13.43
2023-03-23T15:38:03.526Z,13.35
2023-03-23T15:39:01.509Z,13.29
2023-03-23T15:40:02.044Z,13.24
2023-03-23T15:41:01.506Z,13.23
2023-03-23T15:42:04.702Z,13.22
2023-03-23T15:43:02.268Z,13.21
2023-03-23T15:44:03.400Z,13.17
2023-03-23T15:45:02.186Z,13.16
2023-03-23T15:46:01.711Z,13.15
2023-03-23T15:47:07.165Z,13.15
2023-03-23T15:48:02.365Z,13.15
2023-03-23T15:49:03.265Z,13.15
2023-03-23T15:50:02.066Z,13.15
2023-03-23T15:51:01.555Z,13.15
2023-03-23T15:52:04.665Z,13.14
2023-03-23T15:53:02.300Z,13.15
2023-03-23T15:54:09.082Z,13.14
2023-03-23T15:55:02.142Z,13.12
2023-03-23T15:56:01.624Z,13.14
2023-03-23T15:57:02.292Z,13.12
2023-03-23T15:58:02.183Z,13.11
2023-03-23T15:59:01.526Z,13.11
2023-03-23T16:00:03.623Z,13.09
2023-03-23T16:01:03.170Z,13.05
2023-03-23T16:02:04.567Z,13.03
2023-03-23T16:03:02.229Z,13.02
2023-03-23T16:04:01.424Z,13.01
2023-03-23T16:05:01.943Z,13.01
2023-03-23T16:06:03.096Z,13.01
2023-03-23T16:07:03.257Z,13.01
2023-03-23T16:08:03.686Z,13
2023-03-23T16:09:01.723Z,13
2023-03-23T16:10:01.434Z,12.99
2023-03-23T16:11:01.877Z,12.99
2023-03-23T16:12:02.639Z,12.97
2023-03-23T16:13:01.899Z,12.97
2023-03-23T16:14:02.070Z,12.97
2023-03-23T16:15:01.551Z,12.99
2023-03-23T16:16:03.702Z,12.99
2023-03-23T16:17:02.444Z,12.99
2023-03-23T16:18:04.039Z,13
2023-03-23T16:19:01.670Z,13
2023-03-23T16:20:02.119Z,13
2023-03-23T16:21:01.548Z,13.01
2023-03-23T16:22:02.093Z,13.02
2023-03-23T16:23:02.821Z,13.02
2023-03-23T16:24:01.492Z,13.03
2023-03-23T16:25:01.952Z,13.03
2023-03-23T16:26:01.451Z,13.02
2023-03-23T16:27:04.676Z,13
2023-03-23T16:28:02.106Z,12.99
2023-03-23T16:29:12.701Z,12.99
2023-03-23T16:30:04.261Z,12.96
2023-03-23T16:31:01.647Z,12.94
2023-03-23T16:32:09.431Z,12.93
2023-03-23T16:33:02.680Z,12.92
2023-03-23T16:34:01.453Z,12.91
2023-03-23T16:35:01.949Z,12.88
2023-03-23T16:36:03.140Z,12.85
2023-03-23T16:37:05.050Z,12.82
2023-03-23T16:38:07.182Z,12.79
2023-03-23T16:39:01.537Z,12.79
2023-03-23T16:40:02.147Z,12.79
2023-03-23T16:41:01.519Z,12.79
2023-03-23T16:42:02.023Z,12.79
2023-03-23T16:43:08.852Z,12.76
2023-03-23T16:44:03.222Z,12.76
2023-03-23T16:45:03.670Z,12.74
2023-03-23T16:46:01.547Z,12.71
2023-03-23T16:47:01.831Z,12.69
2023-03-23T16:48:01.962Z,12.67
2023-03-23T16:49:01.294Z,12.64
2023-03-23T16:50:01.768Z,12.63
2023-03-23T16:51:01.259Z,12.6
2023-03-23T16:52:02.960Z,12.53
2023-03-23T16:53:02.523Z,12.49
2023-03-23T16:54:01.371Z,12.48
2023-03-23T16:55:01.864Z,12.47
2023-03-23T16:56:03.114Z,12.46
2023-03-23T16:57:02.849Z,12.44
2023-03-23T16:59:03.847Z,12.44
2023-03-23T17:00:03.366Z,12.44
2023-03-23T17:42:04.991Z,12.08
2023-03-23T17:43:02.179Z,12.1
2023-03-23T17:44:02.616Z,12.13
2023-03-23T17:45:02.163Z,12.13
2023-03-23T17:46:03.853Z,12.14
2023-03-23T17:47:02.407Z,12.14
2023-03-23T17:48:02.517Z,12.15
2023-03-23T17:49:03.578Z,12.15
2023-03-23T17:50:12.349Z,12.14
2023-03-23T17:51:01.867Z,12.1
2023-03-23T17:52:02.027Z,12.04
2023-03-23T17:53:02.262Z,12.06
2023-03-23T17:54:01.620Z,12.06
2023-03-23T17:55:02.086Z,12.01
2023-03-23T17:56:01.625Z,11.97
2023-03-23T17:57:02.964Z,11.94
2023-03-23T17:58:03.455Z,12
2023-03-23T17:59:02.218Z,12.02
2023-03-23T18:00:01.555Z,12
2023-03-23T18:01:02.216Z,12.01
2023-03-23T18:02:02.370Z,12.08
2023-03-23T18:03:03.175Z,12.11
2023-03-23T18:04:03.686Z,12.12
2023-03-23T18:05:01.490Z,12.16
2023-03-23T18:06:03.585Z,12.2
2023-03-23T18:07:02.267Z,12.21
2023-03-23T18:08:03.949Z,12.29
2023-03-23T18:09:01.630Z,12.33
2023-03-23T18:10:02.108Z,12.42
2023-03-23T18:11:01.622Z,12.49
2023-03-23T18:12:02.825Z,12.53
2023-03-23T18:13:02.428Z,12.59
2023-03-23T18:14:02.323Z,12.6
2023-03-23T18:15:01.730Z,12.66
2023-03-23T18:16:02.220Z,12.71
2023-03-23T18:17:02.765Z,12.77
2023-03-23T18:18:01.539Z,12.79
2023-03-23T18:19:01.942Z,12.8
2023-03-23T18:20:01.453Z,12.84
2023-03-23T18:21:03.645Z,12.91
2023-03-23T18:22:02.389Z,12.93
2023-03-23T18:23:02.575Z,12.97
2023-03-23T18:24:01.708Z,12.97
2023-03-23T18:25:02.178Z,12.96
2023-03-23T18:26:01.725Z,13.02
2023-03-23T18:27:03.911Z,13.05
2023-03-23T18:29:04.577Z,13.06
2023-03-23T18:30:03.144Z,13.04
2023-03-23T18:31:03.749Z,13.04
2023-03-23T18:32:02.625Z,13.03